Baker, NV (89311)

4:43 PM PDT on August 03, 2015 (GMT -0700)
Hwy 488 | | Change Station
CLOSE
Current Station
Personal Weather Station
Location: Baker, NV
Elevation: 6437 ft
Nearby Weather Stations

Elev 6437 ft 39.01 °N, 114.20 °W | Updated 8 minutes ago

Overcast
Overcast
71.2 °F
Feels Like 77 °F
N
0.0
Wind Variable Wind from East

Today
High -- | Low -- °F
--% Chance of Precip.
Yesterday
High -- | Low -- °F
Precip. -- in
5:39 AM 7:46 PM
Waning Gibbous, 83% visible
Pressure 29.82 in
Visibility 10.0 miles
Clouds Few 10000 ft
Heat Index 77 °F
Dew Point 53 °F
Humidity 53%
Rainfall 0.07 in
Snow Depth Not available.
UV 6 out of 12
Pollen 6.20 out of 12
Air Quality Not available.
Flu Activity Not available.
METAR KELY 032253Z AUTO 04013G21KT 10SM FEW100 29/03 A3012 RMK AO2 WSHFT 2233 LTG DSNT NE AND SE SLP098 T02940028

More Conditions Fewer Conditions

Pressure 29.82 in
Visibility 10.0 miles
Clouds Few 10000 ft
Heat Index 77 °F
Dew Point 53 °F
Humidity 53%
Rainfall 0.07 in
Snow Depth Not available.
UV 6 out of 12
Pollen 6.20 out of 12
Air Quality Not available.
Flu Activity Not available.
METAR KELY 032253Z AUTO 04013G21KT 10SM FEW100 29/03 A3012 RMK AO2 WSHFT 2233 LTG DSNT NE AND SE SLP098 T02940028

More Conditions Fewer Conditions

10-Day Weather Forecast

×

Almanac

Astronomy

Aug. 03, 2015 Rise Set
Actual Time
Civil Twilight
Nautical Twilight
Astronomical Twilight
Moon
Length of Visible Light
Length of Day
Tomorrow will be .
, % of the Moon is Illuminated

Today's Extremes

State Highs State Lows

Community

WunderPhotos

Upload Photos

1,843,791 photos uploaded!

WunderBlogs® & News

Nearby

Air Quality

  Air Quality AQ Index Pollutant
Not available.

Snow Depth

Station Depth Elevation

Earthquake Activity

City Distance Mag. Time & Date
Minimum magnitude displayed is 2.5.

Coastal Water Temperatures

Place Temperature

Stations

Nearby Weather Stations

Station Location Temp. Windchill Dew Point Humidity Wind Precip. Elev Updated Type